Adair, Missouri
Current Conditions -  °F | °C
As of 12:55 AM on Wednesday 22 Oct 2014 (Local Time) from KIRK Reporting Station
Clear Clear  
Wind Chill: 42°   Ceiling: Unl
Heat Index: 46°   Visibility: 10mi
Dew Point: 41°   Wind: 7mph
Humidity: 83%   Direction: 100°E
Pressure: 30.2"   Gusts: NA
Location:  40.2186°N, 92.4328°W
Report Text: KIRK 220555Z AUTO 10006KT 10SM CLR 08/05 A3020 RMK AO2 SLP231 T00780050 10133 20078 401890039 51005
Loading
Personal Weather Stations






























Interactive Weather Map
Tropical Storm Tracking
New forecast layout! Learn more

10-Day Weather Forecast

Advertisements
Track Severe Weather on mobile